Time;durP1;ratioP1;P1;durP2;ratioP2;P2;SDS_P1;SDS_P2;PMS_P1;PMS_P2;Temp;Humidity;BMP_temperature;BMP_pressure;BME280_temperature;BME280_humidity;BME280_pressure;Samples;Min_cycle;Max_cycle;Signal;HPM_P1;HPM_P2
2022/08/14 00:02:07;;;;;;;10.70;6.90;;;27.50;41.70;;;;;;5062766;28;21278;-89
2022/08/14 00:04:35;;;;;;;7.03;6.40;;;27.60;42.00;;;;;;5090353;28;20466;-89
2022/08/14 00:07:02;;;;;;;7.23;6.53;;;27.60;42.30;;;;;;5075319;28;20542;-88
2022/08/14 00:09:29;;;;;;;8.00;7.27;;;27.60;42.50;;;;;;5090680;28;20470;-88
2022/08/14 00:11:56;;;;;;;6.77;6.07;;;27.60;42.60;;;;;;5065874;28;20446;-88
2022/08/14 00:14:27;;;;;;;9.20;6.90;;;27.60;42.60;;;;;;5072828;28;20457;-88
2022/08/14 00:16:54;;;;;;;7.10;6.40;;;27.60;42.70;;;;;;5075315;28;20440;-88
2022/08/14 00:19:21;;;;;;;6.93;6.20;;;27.50;43.20;;;;;;5075650;28;20846;-89
2022/08/14 00:21:49;;;;;;;8.20;6.60;;;27.50;42.80;;;;;;5093111;28;20480;-88
2022/08/14 00:24:16;;;;;;;8.03;7.23;;;27.50;43.00;;;;;;5076788;28;20471;-89
2022/08/14 00:26:43;;;;;;;9.90;7.23;;;27.50;42.60;;;;;;5056481;28;20443;-89
2022/08/14 00:29:10;;;;;;;7.57;6.87;;;27.40;43.20;;;;;;5092846;28;20479;-85
2022/08/14 00:31:38;;;;;;;7.10;6.13;;;27.40;42.90;;;;;;5050580;28;20499;-89
2022/08/14 00:34:05;;;;;;;9.80;6.73;;;27.30;42.80;;;;;;5071516;28;20572;-88
2022/08/14 00:36:32;;;;;;;6.50;5.87;;;27.20;43.20;;;;;;5093391;28;20458;-89
2022/08/14 00:38:59;;;;;;;6.63;6.00;;;27.20;43.00;;;;;;5058869;28;20532;-88
2022/08/14 00:41:31;;;;;;;6.40;5.80;;;27.20;43.00;;;;;;5076626;28;20567;-90
2022/08/14 00:43:58;;;;;;;6.93;6.00;;;27.20;42.60;;;;;;5073749;28;20460;-88
2022/08/14 00:46:25;;;;;;;7.10;6.40;;;27.10;42.90;;;;;;5071018;28;20451;-88
2022/08/14 00:48:53;;;;;;;8.40;6.80;;;27.10;43.30;;;;;;5056114;28;21002;-88
2022/08/14 00:51:21;;;;;;;8.73;6.67;;;27.10;43.20;;;;;;5088818;28;21096;-88
2022/08/14 00:53:49;;;;;;;6.60;5.97;;;27.00;43.40;;;;;;5090923;28;20439;-88
2022/08/14 00:56:18;;;;;;;6.43;5.93;;;27.00;43.30;;;;;;5073929;28;20443;-87
2022/08/14 00:58:46;;;;;;;7.17;6.37;;;27.00;43.40;;;;;;5066382;28;20875;-89
2022/08/14 01:01:15;;;;;;;6.50;5.90;;;27.00;43.30;;;;;;5073699;28;20478;-89
2022/08/14 01:03:43;;;;;;;8.63;6.77;;;27.00;43.20;;;;;;5089957;28;20463;-88
2022/08/14 01:06:15;;;;;;;7.50;6.43;;;26.90;43.10;;;;;;5088675;28;20496;-87
2022/08/14 01:08:44;;;;;;;8.33;6.17;;;26.90;43.60;;;;;;5092620;28;20521;-88
2022/08/14 01:11:14;;;;;;;8.70;6.67;;;26.90;43.90;;;;;;5071866;28;20459;-88
2022/08/14 01:13:44;;;;;;;7.97;7.07;;;26.80;43.70;;;;;;5073810;28;20448;-88
2022/08/14 01:16:14;;;;;;;7.30;6.60;;;26.80;44.20;;;;;;5056469;28;21097;-88
2022/08/14 01:21:31;;;;;;;8.10;7.40;;;26.60;44.00;;;;;;5066563;28;20463;-90
2022/08/14 01:23:58;;;;;;;8.50;7.10;;;26.60;44.10;;;;;;5057934;28;20440;-86
2022/08/14 01:26:27;;;;;;;8.00;7.27;;;26.60;44.50;;;;;;5086621;28;20440;-88
2022/08/14 01:28:56;;;;;;;7.40;6.70;;;26.60;44.50;;;;;;5081729;28;20500;-88
2022/08/14 01:31:25;;;;;;;8.07;7.37;;;26.50;44.50;;;;;;5074091;28;20473;-89
2022/08/14 01:33:55;;;;;;;8.50;7.23;;;26.50;43.90;;;;;;5070090;28;20451;-88
2022/08/14 01:36:25;;;;;;;7.10;6.40;;;26.50;45.10;;;;;;5049286;28;20491;-87
2022/08/14 01:38:56;;;;;;;9.47;7.60;;;26.50;44.30;;;;;;5074572;28;21010;-89
2022/08/14 01:41:26;;;;;;;7.67;6.90;;;26.40;44.80;;;;;;5076121;28;20561;-88
2022/08/14 01:43:59;;;;;;;8.37;7.00;;;26.40;45.10;;;;;;5073498;28;20448;-87
2022/08/14 01:46:29;;;;;;;9.20;7.30;;;26.30;45.10;;;;;;5072877;28;20450;-89
2022/08/14 01:48:57;;;;;;;7.53;6.80;;;26.30;45.70;;;;;;5049832;28;20475;-89
2022/08/14 01:51:27;;;;;;;9.07;7.10;;;26.10;45.90;;;;;;5070988;28;20443;-87
2022/08/14 01:53:58;;;;;;;8.63;7.50;;;26.10;45.70;;;;;;5054769;28;20991;-89
2022/08/14 01:56:34;;;;;;;7.73;6.87;;;26.20;45.70;;;;;;5087938;28;20478;-89
2022/08/14 01:59:02;;;;;;;7.90;6.90;;;26.20;45.70;;;;;;5053765;28;20531;-88
2022/08/14 02:01:29;;;;;;;10.60;7.00;;;26.10;45.50;;;;;;5072191;28;20559;-88
2022/08/14 02:03:56;;;;;;;7.87;7.07;;;26.10;45.60;;;;;;5049688;28;20459;-88
2022/08/14 02:06:25;;;;;;;8.70;7.00;;;26.10;45.40;;;;;;5074624;28;20455;-88
2022/08/14 02:08:54;;;;;;;8.23;7.43;;;26.10;45.50;;;;;;5073815;28;20474;-89
2022/08/14 02:11:24;;;;;;;7.73;6.93;;;26.10;45.50;;;;;;5065899;28;20445;-88
2022/08/14 02:13:58;;;;;;;7.97;7.10;;;26.00;45.40;;;;;;5056319;28;20442;-88
2022/08/14 02:16:29;;;;;;;8.20;6.40;;;26.00;45.60;;;;;;5057162;28;20451;-89
2022/08/14 02:18:58;;;;;;;10.50;7.77;;;26.00;45.70;;;;;;5073787;28;20608;-88
2022/08/14 02:21:26;;;;;;;7.83;6.93;;;26.00;45.80;;;;;;5058502;28;20792;-88
2022/08/14 02:23:55;;;;;;;8.50;7.60;;;25.90;45.60;;;;;;5076845;28;20461;-91
2022/08/14 02:26:26;;;;;;;7.87;7.07;;;25.90;45.60;;;;;;5089514;28;21346;-90
2022/08/14 02:28:55;;;;;;;8.93;7.20;;;25.90;45.80;;;;;;5089337;28;20557;-89
2022/08/14 02:31:22;;;;;;;8.30;7.33;;;25.90;46.00;;;;;;5056433;28;20463;-89
2022/08/14 02:33:49;;;;;;;8.10;7.30;;;25.80;46.10;;;;;;5070874;28;20439;-89
2022/08/14 02:36:16;;;;;;;9.53;7.60;;;25.70;46.00;;;;;;5082184;28;20602;-89
2022/08/14 02:38:43;;;;;;;8.43;7.63;;;25.70;45.70;;;;;;5065373;28;21034;-89
2022/08/14 02:41:13;;;;;;;8.57;7.57;;;25.70;46.10;;;;;;5071227;28;20501;-89
2022/08/14 02:43:42;;;;;;;8.63;6.77;;;25.60;46.40;;;;;;5064885;28;20539;-89
2022/08/14 02:46:11;;;;;;;7.37;6.60;;;25.60;46.30;;;;;;5081423;28;20451;-86
2022/08/14 02:48:39;;;;;;;7.87;7.10;;;25.60;46.30;;;;;;5054668;28;20547;-88
2022/08/14 02:51:09;;;;;;;8.03;7.10;;;25.60;46.30;;;;;;5043083;28;20564;-88
2022/08/14 02:53:39;;;;;;;10.10;7.20;;;25.60;45.90;;;;;;5095653;28;20446;-88
2022/08/14 02:56:07;;;;;;;8.47;7.67;;;25.50;46.50;;;;;;5079855;28;20444;-88
2022/08/14 02:58:37;;;;;;;10.27;8.10;;;25.50;46.60;;;;;;5069382;28;20806;-88
2022/08/14 03:01:07;;;;;;;7.80;7.10;;;25.40;47.00;;;;;;5094273;28;20464;-89
2022/08/14 03:03:35;;;;;;;8.80;7.50;;;25.40;47.50;;;;;;5067539;28;20479;-88
2022/08/14 03:06:03;;;;;;;8.00;7.20;;;24.90;48.90;;;;;;5080345;28;20451;-89
2022/08/14 03:08:32;;;;;;;9.30;8.40;;;24.60;49.40;;;;;;5048705;28;20466;-88
2022/08/14 03:11:00;;;;;;;13.67;8.97;;;24.10;50.50;;;;;;5097183;28;20450;-88
2022/08/14 03:13:27;;;;;;;9.23;7.90;;;23.80;51.40;;;;;;5092432;28;20475;-90
2022/08/14 03:15:55;;;;;;;10.60;8.97;;;23.70;51.80;;;;;;5098223;28;20440;-89
2022/08/14 03:18:24;;;;;;;8.87;8.00;;;23.70;51.60;;;;;;5076981;28;20451;-87
2022/08/14 03:20:51;;;;;;;10.83;8.60;;;24.00;51.10;;;;;;5074234;28;20471;-88
2022/08/14 03:23:19;;;;;;;9.10;8.13;;;24.20;50.90;;;;;;5086238;28;21512;-88
2022/08/14 03:25:47;;;;;;;9.27;8.23;;;24.40;50.30;;;;;;5092748;28;21032;-89
2022/08/14 03:28:15;;;;;;;9.70;8.70;;;24.50;49.40;;;;;;5093091;28;20447;-89
2022/08/14 03:30:42;;;;;;;10.13;8.50;;;24.70;49.30;;;;;;5067456;28;20473;-88
2022/08/14 03:33:11;;;;;;;9.80;7.93;;;24.70;49.00;;;;;;5086168;28;20463;-88
2022/08/14 03:35:41;;;;;;;10.63;8.80;;;24.80;48.50;;;;;;5095545;28;20554;-88
2022/08/14 03:38:09;;;;;;;10.80;8.60;;;24.90;48.60;;;;;;5076630;28;20443;-88
2022/08/14 03:40:38;;;;;;;10.00;9.00;;;24.90;48.60;;;;;;5079474;28;20966;-89
2022/08/14 03:43:05;;;;;;;10.10;8.10;;;24.90;48.50;;;;;;5084635;28;20473;-89
2022/08/14 03:45:34;;;;;;;10.90;9.80;;;25.00;48.40;;;;;;5042617;28;21126;-88
2022/08/14 03:48:04;;;;;;;9.73;8.73;;;25.00;48.40;;;;;;5086349;28;20449;-89
2022/08/14 03:50:32;;;;;;;9.67;8.60;;;24.90;48.20;;;;;;5064310;28;20536;-89
2022/08/14 03:53:02;;;;;;;9.47;8.50;;;24.90;48.30;;;;;;5042743;28;20474;-89
2022/08/14 03:55:29;;;;;;;9.03;7.67;;;24.90;48.60;;;;;;5060433;28;21751;-88
2022/08/14 03:57:56;;;;;;;9.00;8.10;;;24.80;49.00;;;;;;5061196;28;21065;-89
2022/08/14 04:00:23;;;;;;;9.57;7.87;;;24.80;49.00;;;;;;5074059;28;20459;-89
2022/08/14 04:02:50;;;;;;;9.63;8.63;;;24.80;49.10;;;;;;5094662;28;20462;-88
2022/08/14 04:05:17;;;;;;;10.70;7.70;;;24.80;49.10;;;;;;5090359;28;20446;-90
2022/08/14 04:07:45;;;;;;;9.60;8.13;;;24.80;49.50;;;;;;5069195;28;20456;-90
2022/08/14 04:10:14;;;;;;;11.13;8.43;;;24.70;49.40;;;;;;5076667;28;20471;-89
2022/08/14 04:12:41;;;;;;;10.33;8.63;;;24.70;49.40;;;;;;5060528;28;20440;-90
2022/08/14 04:15:09;;;;;;;9.63;8.73;;;24.70;49.10;;;;;;5044004;28;20443;-89
2022/08/14 04:17:36;;;;;;;12.37;9.37;;;24.70;48.90;;;;;;5074680;28;20991;-89
2022/08/14 04:20:05;;;;;;;10.50;9.40;;;24.70;48.70;;;;;;5069045;28;20452;-89
2022/08/14 04:22:33;;;;;;;10.57;9.23;;;24.70;48.70;;;;;;5079086;28;21028;-89
2022/08/14 04:25:01;;;;;;;9.20;8.23;;;24.70;48.50;;;;;;5059848;28;20443;-90
2022/08/14 04:27:29;;;;;;;9.60;8.60;;;24.60;48.40;;;;;;5056491;28;20440;-89
2022/08/14 04:29:56;;;;;;;10.47;9.37;;;24.60;47.60;;;;;;5074318;28;20470;-90
2022/08/14 04:32:26;;;;;;;11.43;9.20;;;24.50;48.90;;;;;;5090157;28;20455;-89
2022/08/14 04:34:53;;;;;;;12.60;9.43;;;24.60;49.00;;;;;;5071978;28;20442;-89
2022/08/14 04:45:40;;;;;;;11.80;9.97;;;23.00;53.10;;;;;;5068778;28;20845;-89
2022/08/14 04:48:13;;;;;;;12.67;10.33;;;22.80;53.90;;;;;;5057012;28;20538;-89
2022/08/14 04:50:44;;;;;;;10.90;9.80;;;23.20;52.80;;;;;;5073572;28;20464;-88
2022/08/14 04:53:12;;;;;;;16.03;10.77;;;23.60;51.80;;;;;;5075635;28;20446;-89
2022/08/14 04:55:41;;;;;;;12.03;10.40;;;23.90;51.40;;;;;;5090813;28;20450;-89
2022/08/14 04:58:10;;;;;;;9.73;8.70;;;24.00;51.20;;;;;;5093477;28;20452;-89
2022/08/14 05:00:38;;;;;;;15.63;10.33;;;24.10;51.20;;;;;;5092345;28;20485;-90
2022/08/14 05:03:06;;;;;;;10.47;9.07;;;24.20;51.10;;;;;;5071901;28;20460;-88
2022/08/14 05:05:34;;;;;;;13.20;9.30;;;24.30;51.20;;;;;;5049924;28;20857;-88
2022/08/14 05:08:07;;;;;;;11.20;9.30;;;24.30;51.60;;;;;;5068686;28;20447;-89
2022/08/14 05:10:36;;;;;;;11.13;8.87;;;24.30;51.30;;;;;;5058568;28;20992;-89
2022/08/14 05:13:04;;;;;;;12.10;9.57;;;24.30;51.90;;;;;;5064361;28;20445;-88
2022/08/14 05:15:35;;;;;;;11.10;9.07;;;24.30;51.70;;;;;;5075801;28;20535;-89
2022/08/14 05:18:11;;;;;;;10.60;9.43;;;24.30;52.10;;;;;;5062987;28;20466;-89
2022/08/14 05:20:39;;;;;;;11.50;8.87;;;24.30;51.60;;;;;;5074440;28;20462;-90
2022/08/14 05:23:07;;;;;;;9.37;8.37;;;24.40;51.90;;;;;;5067974;28;20466;-91
2022/08/14 05:25:35;;;;;;;13.27;9.47;;;24.40;51.70;;;;;;5067412;28;20834;-90
2022/08/14 05:28:10;;;;;;;9.90;8.90;;;24.50;51.90;;;;;;5096726;28;21048;-89
2022/08/14 05:30:43;;;;;;;10.57;9.30;;;24.50;51.70;;;;;;5094058;28;20450;-91
2022/08/14 05:33:11;;;;;;;9.80;8.80;;;24.50;51.60;;;;;;5061234;28;20444;-88
2022/08/14 05:35:38;;;;;;;10.60;9.50;;;24.50;51.40;;;;;;5064088;28;20436;-90
2022/08/14 05:38:07;;;;;;;12.17;9.83;;;24.60;51.60;;;;;;5093630;28;20443;-90
2022/08/14 05:40:35;;;;;;;12.90;11.43;;;24.60;51.50;;;;;;5094697;28;20550;-90
2022/08/14 05:43:02;;;;;;;11.23;10.03;;;24.60;51.60;;;;;;5075678;28;20525;-91
2022/08/14 05:45:29;;;;;;;15.10;11.37;;;24.60;51.40;;;;;;5060053;28;20497;-89
2022/08/14 05:47:58;;;;;;;13.43;10.20;;;24.50;51.40;;;;;;5079414;28;21023;-90
2022/08/14 05:50:25;;;;;;;11.90;9.63;;;24.60;51.70;;;;;;5095970;28;20475;-89
2022/08/14 05:52:52;;;;;;;12.80;10.70;;;24.60;51.80;;;;;;5061333;28;20489;-91
2022/08/14 05:55:20;;;;;;;12.50;9.60;;;24.60;52.00;;;;;;5059306;28;20435;-90
2022/08/14 05:57:49;;;;;;;14.27;10.30;;;24.70;51.80;;;;;;5096195;28;20478;-90
2022/08/14 06:00:17;;;;;;;14.70;10.90;;;24.70;51.30;;;;;;5050936;28;20478;-90
2022/08/14 06:02:45;;;;;;;11.30;9.83;;;24.80;51.30;;;;;;5079782;28;20468;-89
2022/08/14 06:05:13;;;;;;;12.97;10.57;;;24.80;51.30;;;;;;5078418;28;21232;-91
2022/08/14 06:07:40;;;;;;;12.50;10.47;;;24.80;51.30;;;;;;5079158;28;20695;-89
2022/08/14 06:10:09;;;;;;;15.13;11.80;;;24.80;51.60;;;;;;5077154;28;20505;-91
2022/08/14 06:12:36;;;;;;;14.83;11.00;;;24.70;52.10;;;;;;5078354;28;20731;-90
2022/08/14 06:15:05;;;;;;;13.40;11.57;;;24.70;52.30;;;;;;5057395;28;20496;-90
2022/08/14 06:17:32;;;;;;;14.37;10.73;;;24.80;52.10;;;;;;5069531;28;20451;-90
2022/08/14 06:19:59;;;;;;;13.50;11.40;;;24.80;51.60;;;;;;5079358;28;20466;-90
2022/08/14 06:22:27;;;;;;;12.70;10.57;;;24.90;51.40;;;;;;5095630;28;20462;-91
2022/08/14 06:24:54;;;;;;;12.20;10.90;;;25.00;51.60;;;;;;5068618;28;20439;-89
2022/08/14 06:27:22;;;;;;;13.80;11.70;;;25.00;51.40;;;;;;5073261;28;20442;-90
2022/08/14 06:29:49;;;;;;;13.60;12.20;;;25.10;51.50;;;;;;5081081;28;20466;-90
2022/08/14 06:32:16;;;;;;;14.90;10.83;;;25.10;51.50;;;;;;5082882;28;20444;-90
2022/08/14 06:34:43;;;;;;;12.47;11.17;;;25.20;51.50;;;;;;5065680;28;20462;-89
2022/08/14 06:37:10;;;;;;;13.30;10.50;;;25.20;51.20;;;;;;5070797;28;20458;-89
2022/08/14 06:39:38;;;;;;;11.87;10.63;;;25.30;51.10;;;;;;5060283;28;20471;-91
2022/08/14 06:42:06;;;;;;;14.13;11.37;;;25.30;50.70;;;;;;5063763;28;20499;-90
2022/08/14 06:44:33;;;;;;;14.50;11.57;;;25.40;50.90;;;;;;5064179;28;20507;-90
2022/08/14 06:47:01;;;;;;;16.83;12.67;;;25.50;50.90;;;;;;5058356;28;20482;-90
2022/08/14 06:49:28;;;;;;;15.73;11.97;;;25.60;50.90;;;;;;5069502;28;20827;-89
2022/08/14 06:51:55;;;;;;;14.40;12.67;;;25.70;51.00;;;;;;5070021;28;20964;-91
2022/08/14 06:54:22;;;;;;;12.10;10.90;;;25.80;50.90;;;;;;5068323;28;20455;-92
2022/08/14 06:56:51;;;;;;;15.03;12.37;;;25.90;50.80;;;;;;5055969;28;20447;-91
2022/08/14 06:59:18;;;;;;;13.70;10.90;;;26.00;50.50;;;;;;5053940;28;20463;-91
2022/08/14 07:07:14;;;;;;;14.70;10.70;;;26.30;50.30;;;;;;5048948;28;20594;-91
2022/08/14 07:09:41;;;;;;;11.20;10.00;;;26.60;50.00;;;;;;5062242;28;20726;-90
2022/08/14 07:12:10;;;;;;;10.80;9.70;;;26.70;49.60;;;;;;5046491;28;20526;-89
2022/08/14 07:14:37;;;;;;;12.10;9.60;;;26.80;49.20;;;;;;5046997;28;20925;-89
2022/08/14 07:17:04;;;;;;;11.70;10.50;;;26.80;49.30;;;;;;5085140;28;20477;-89
2022/08/14 07:19:31;;;;;;;11.60;10.40;;;26.90;49.50;;;;;;5059945;28;20463;-88
2022/08/14 07:21:58;;;;;;;11.83;10.03;;;27.00;48.90;;;;;;5060064;28;20443;-87
2022/08/14 07:24:26;;;;;;;11.43;10.27;;;26.90;49.50;;;;;;5064116;28;20532;-89
2022/08/14 07:26:53;;;;;;;10.50;9.40;;;27.10;49.30;;;;;;5051742;28;20458;-89
2022/08/14 07:29:22;;;;;;;10.93;9.93;;;27.30;48.70;;;;;;5077841;28;20514;-88
2022/08/14 07:31:49;;;;;;;10.90;9.67;;;27.20;48.50;;;;;;5068013;28;20447;-88
2022/08/14 07:34:17;;;;;;;10.40;9.30;;;27.50;48.40;;;;;;5073507;28;20451;-87
2022/08/14 07:36:44;;;;;;;10.30;9.30;;;27.70;47.70;;;;;;5075182;28;20456;-88
2022/08/14 07:39:11;;;;;;;9.37;8.37;;;27.70;47.60;;;;;;5076134;28;20475;-87
2022/08/14 07:41:38;;;;;;;11.10;8.60;;;27.70;47.40;;;;;;5079178;28;20455;-87
2022/08/14 07:44:05;;;;;;;9.33;8.30;;;27.90;47.40;;;;;;5075756;28;20489;-87
2022/08/14 07:46:34;;;;;;;10.80;9.40;;;28.10;47.10;;;;;;5069277;28;20455;-86
2022/08/14 07:49:00;;;;;;;9.67;8.67;;;28.10;46.50;;;;;;5093116;28;20471;-86
2022/08/14 07:51:27;;;;;;;9.93;9.03;;;28.10;46.40;;;;;;5078335;28;20455;-88
2022/08/14 07:53:54;;;;;;;12.20;9.87;;;28.00;46.50;;;;;;5044220;28;20973;-87
2022/08/14 07:56:21;;;;;;;9.40;8.50;;;28.10;46.70;;;;;;5091630;28;20435;-88
2022/08/14 07:58:48;;;;;;;11.90;8.90;;;28.30;46.30;;;;;;5080442;28;20444;-86
2022/08/14 08:01:17;;;;;;;8.97;8.07;;;28.50;45.70;;;;;;5097401;28;20454;-88
2022/08/14 08:03:48;;;;;;;10.67;9.57;;;28.60;45.70;;;;;;5094079;28;20982;-87
2022/08/14 08:06:16;;;;;;;10.00;9.00;;;28.60;45.50;;;;;;5077410;28;20497;-87
2022/08/14 08:08:46;;;;;;;8.93;8.03;;;28.50;45.50;;;;;;5061967;28;20454;-86
2022/08/14 08:11:13;;;;;;;9.60;8.60;;;28.50;45.50;;;;;;5079515;28;20477;-88
2022/08/14 08:13:42;;;;;;;9.60;8.70;;;28.70;45.60;;;;;;5098532;28;20932;-87
2022/08/14 08:16:09;;;;;;;9.70;8.47;;;28.80;44.90;;;;;;5067455;28;20432;-86
2022/08/14 08:18:36;;;;;;;8.90;8.03;;;28.90;44.80;;;;;;5099535;28;20533;-88
2022/08/14 08:21:05;;;;;;;9.83;8.83;;;28.90;44.40;;;;;;5063964;28;20439;-89
2022/08/14 08:23:32;;;;;;;9.30;8.30;;;29.00;44.40;;;;;;5079358;28;20460;-87
2022/08/14 08:25:59;;;;;;;9.20;8.40;;;29.10;44.10;;;;;;5079253;28;20452;-87
2022/08/14 08:28:27;;;;;;;9.97;8.67;;;29.20;43.90;;;;;;5096536;28;20719;-88
2022/08/14 08:30:56;;;;;;;9.30;8.40;;;29.20;43.20;;;;;;5064862;28;20490;-87
2022/08/14 08:33:26;;;;;;;9.43;8.50;;;29.20;43.50;;;;;;5079825;28;20431;-88
2022/08/14 08:35:55;;;;;;;10.03;9.10;;;29.40;42.90;;;;;;5082640;28;20446;-87
2022/08/14 08:38:26;;;;;;;9.70;8.70;;;29.30;43.40;;;;;;5069693;28;20455;-88
2022/08/14 08:40:55;;;;;;;9.30;8.07;;;29.30;43.20;;;;;;5075962;28;20555;-88
2022/08/14 08:43:23;;;;;;;10.03;9.07;;;29.60;43.00;;;;;;5077603;28;20472;-88
2022/08/14 08:45:55;;;;;;;10.00;8.70;;;29.80;42.80;;;;;;5096568;28;20451;-87
2022/08/14 08:48:23;;;;;;;10.43;8.73;;;29.90;42.80;;;;;;5055372;28;20849;-88
2022/08/14 08:50:50;;;;;;;8.70;8.00;;;30.20;42.40;;;;;;5050157;28;20861;-89
2022/08/14 08:53:17;;;;;;;8.57;7.87;;;30.30;41.70;;;;;;5101377;28;20823;-87
2022/08/14 08:55:46;;;;;;;7.87;7.10;;;30.30;40.40;;;;;;5065388;28;20462;-89
2022/08/14 08:58:16;;;;;;;8.93;7.80;;;30.30;40.60;;;;;;5062554;28;20535;-88
2022/08/14 09:00:46;;;;;;;13.30;8.50;;;30.50;40.30;;;;;;5075715;28;21000;-90
2022/08/14 09:03:17;;;;;;;10.20;8.50;;;30.50;39.90;;;;;;5080990;28;20474;-89
2022/08/14 09:05:51;;;;;;;8.77;7.97;;;30.40;40.30;;;;;;5073447;28;21000;-89
2022/08/14 09:08:20;;;;;;;8.57;7.77;;;30.60;40.30;;;;;;5073273;28;20947;-88
2022/08/14 09:10:48;;;;;;;8.00;7.30;;;30.90;40.10;;;;;;5074336;28;20468;-88
2022/08/14 09:13:16;;;;;;;8.57;7.73;;;31.10;38.80;;;;;;5073229;28;20843;-89
2022/08/14 09:15:45;;;;;;;8.60;7.80;;;31.10;38.80;;;;;;5075223;28;20456;-89
2022/08/14 09:18:13;;;;;;;10.13;7.10;;;31.20;38.00;;;;;;5085455;28;21006;-88
2022/08/14 09:20:42;;;;;;;8.53;7.83;;;31.10;37.90;;;;;;5083318;28;20519;-87
2022/08/14 09:23:09;;;;;;;9.13;7.00;;;31.40;38.40;;;;;;5075730;28;21040;-89
2022/08/14 09:25:37;;;;;;;8.60;7.80;;;31.70;37.70;;;;;;5073774;28;20947;-90
2022/08/14 09:28:07;;;;;;;7.80;7.10;;;32.00;36.90;;;;;;5073967;28;20448;-89
2022/08/14 09:30:38;;;;;;;8.20;7.43;;;32.00;36.30;;;;;;5056230;28;20476;-90
2022/08/14 09:33:26;;;;;;;7.23;6.63;;;31.90;36.40;;;;;;5091607;28;20528;-89
2022/08/14 09:36:06;;;;;;;7.63;7.03;;;32.30;36.30;;;;;;5071100;28;20447;-89
2022/08/14 09:38:45;;;;;;;7.97;7.20;;;32.60;35.30;;;;;;5071439;28;20444;-88
2022/08/14 09:41:29;;;;;;;7.73;7.03;;;32.70;34.70;;;;;;5071583;28;20479;-87
2022/08/14 09:44:05;;;;;;;7.33;6.40;;;32.70;35.30;;;;;;5065480;28;20467;-90
2022/08/14 09:46:32;;;;;;;7.73;6.80;;;32.90;33.60;;;;;;5060620;28;20457;-89
2022/08/14 09:49:00;;;;;;;7.10;6.50;;;32.70;34.10;;;;;;5069921;28;20467;-89
2022/08/14 09:51:29;;;;;;;7.67;7.07;;;32.90;34.60;;;;;;5094769;28;20459;-88
2022/08/14 09:54:04;;;;;;;7.20;6.50;;;32.90;34.90;;;;;;5078169;28;20447;-88
2022/08/14 09:56:44;;;;;;;8.07;7.37;;;32.90;34.40;;;;;;5081018;28;20431;-89
2022/08/14 09:59:15;;;;;;;7.80;7.10;;;33.20;33.40;;;;;;5051283;28;20479;-87
2022/08/14 10:01:43;;;;;;;7.00;6.40;;;33.20;33.50;;;;;;5050015;28;20496;-89
2022/08/14 10:04:19;;;;;;;7.10;6.40;;;33.30;34.00;;;;;;5095815;28;20528;-87
2022/08/14 10:06:47;;;;;;;7.13;6.47;;;33.20;31.20;;;;;;5074215;28;20453;-90
2022/08/14 10:09:14;;;;;;;6.70;6.10;;;33.40;30.70;;;;;;5051143;28;20471;-89
2022/08/14 10:11:42;;;;;;;6.43;5.83;;;33.30;31.20;;;;;;5078419;28;20440;-89
2022/08/14 10:14:16;;;;;;;6.13;5.67;;;33.40;30.30;;;;;;5074091;28;20592;-90
2022/08/14 10:16:44;;;;;;;6.97;5.93;;;33.60;30.30;;;;;;5078263;28;20493;-89
2022/08/14 10:19:14;;;;;;;7.30;6.67;;;33.70;31.50;;;;;;5090112;28;20514;-89
2022/08/14 10:21:47;;;;;;;6.43;5.90;;;33.70;29.80;;;;;;5076981;28;20454;-89
2022/08/14 10:24:24;;;;;;;7.63;6.23;;;33.90;30.50;;;;;;5058794;28;20478;-89
2022/08/14 10:26:54;;;;;;;6.67;6.17;;;34.20;31.20;;;;;;5093552;28;20447;-88
2022/08/14 10:29:31;;;;;;;7.63;6.13;;;34.30;29.60;;;;;;5078890;28;20527;-90
2022/08/14 10:31:59;;;;;;;6.60;6.00;;;34.50;29.00;;;;;;5070978;28;20446;-89
2022/08/14 10:34:32;;;;;;;6.30;5.70;;;34.80;28.80;;;;;;5085162;28;20527;-89
2022/08/14 10:37:06;;;;;;;6.63;5.60;;;34.80;27.70;;;;;;5044525;28;20818;-89
2022/08/14 10:39:35;;;;;;;5.87;5.47;;;34.70;27.50;;;;;;5093236;28;20475;-89
2022/08/14 10:42:05;;;;;;;6.20;5.70;;;34.70;28.00;;;;;;5093725;28;20535;-89
2022/08/14 10:44:37;;;;;;;6.70;6.20;;;34.80;28.30;;;;;;5092022;28;20969;-89
2022/08/14 10:47:06;;;;;;;5.37;4.97;;;35.00;28.60;;;;;;5062443;28;21292;-89
2022/08/14 10:49:34;;;;;;;6.77;6.23;;;35.00;28.20;;;;;;5075473;28;20474;-89
2022/08/14 10:52:07;;;;;;;6.00;5.50;;;35.10;28.40;;;;;;5082522;28;20483;-88
2022/08/14 10:54:36;;;;;;;7.23;6.00;;;35.40;27.90;;;;;;5057750;28;20443;-90
2022/08/14 10:57:15;;;;;;;7.50;5.70;;;35.50;27.80;;;;;;5052174;28;20439;-88
2022/08/14 10:59:46;;;;;;;6.07;5.57;;;35.60;27.30;;;;;;5055539;28;20463;-89
2022/08/14 11:02:28;;;;;;;7.50;5.40;;;35.60;27.30;;;;;;5088940;28;20454;-88
2022/08/14 11:05:06;;;;;;;6.20;5.70;;;35.60;27.00;;;;;;5091086;28;20464;-88
2022/08/14 11:07:35;;;;;;;8.40;4.80;;;35.60;26.80;;;;;;5075692;28;20492;-89
2022/08/14 11:10:07;;;;;;;6.37;5.87;;;35.20;27.50;;;;;;5092261;28;20467;-91
2022/08/14 11:12:45;;;;;;;5.77;5.27;;;35.40;27.10;;;;;;5059027;28;20466;-90
2022/08/14 11:15:15;;;;;;;6.40;5.90;;;35.80;26.70;;;;;;5064644;28;20478;-89
2022/08/14 11:17:44;;;;;;;6.03;5.50;;;36.20;26.90;;;;;;5098348;28;20459;-89
2022/08/14 11:20:13;;;;;;;6.13;5.63;;;36.10;26.70;;;;;;5078502;28;20520;-90
2022/08/14 11:22:41;;;;;;;6.50;5.23;;;36.10;26.30;;;;;;5083757;28;20496;-89
2022/08/14 11:25:12;;;;;;;5.60;5.00;;;36.30;27.10;;;;;;5071707;28;20495;-90
2022/08/14 11:27:41;;;;;;;5.47;4.97;;;36.30;26.30;;;;;;5074785;28;20536;-89
2022/08/14 11:30:11;;;;;;;5.60;5.10;;;36.40;27.50;;;;;;5085520;28;20477;-90
2022/08/14 11:32:43;;;;;;;6.80;6.20;;;36.70;26.70;;;;;;5070178;28;20812;-89
2022/08/14 11:35:14;;;;;;;5.60;5.20;;;37.00;26.20;;;;;;5069732;28;20459;-89
2022/08/14 11:37:55;;;;;;;5.40;5.00;;;37.20;26.30;;;;;;5097208;28;21322;-88
2022/08/14 11:40:24;;;;;;;9.00;5.30;;;37.70;26.20;;;;;;5093503;28;20501;-88
2022/08/14 11:42:54;;;;;;;5.40;5.00;;;37.90;25.00;;;;;;5096185;28;20447;-87
2022/08/14 11:45:23;;;;;;;7.53;5.20;;;37.80;24.40;;;;;;5064719;28;20506;-88
2022/08/14 11:47:53;;;;;;;5.00;4.60;;;37.40;25.50;;;;;;5077023;28;20508;-87
2022/08/14 11:50:23;;;;;;;5.13;4.73;;;37.10;25.20;;;;;;5068515;28;20471;-88
2022/08/14 11:52:50;;;;;;;5.47;4.97;;;36.90;25.00;;;;;;5086373;28;20447;-89
2022/08/14 11:55:17;;;;;;;5.50;5.00;;;36.70;25.80;;;;;;5063416;28;20447;-88
2022/08/14 11:57:46;;;;;;;4.80;4.40;;;36.90;25.40;;;;;;5078468;28;20450;-88
2022/08/14 12:00:16;;;;;;;5.37;4.97;;;37.20;25.50;;;;;;5074057;28;20836;-90
2022/08/14 12:02:52;;;;;;;5.20;3.80;;;37.00;24.70;;;;;;5083251;28;20935;-88
2022/08/14 12:05:32;;;;;;;6.47;4.50;;;37.00;25.00;;;;;;5103504;28;20470;-88
2022/08/14 12:08:00;;;;;;;4.17;3.87;;;37.10;24.50;;;;;;5099760;28;20435;-89
2022/08/14 12:10:28;;;;;;;4.83;4.53;;;37.10;24.00;;;;;;5076617;28;20479;-89
2022/08/14 12:12:55;;;;;;;6.20;4.93;;;37.00;24.10;;;;;;5076233;28;20475;-87
2022/08/14 12:15:31;;;;;;;5.60;5.10;;;37.20;24.90;;;;;;5080582;28;20451;-89
2022/08/14 12:18:00;;;;;;;4.37;4.07;;;37.40;24.50;;;;;;5069403;28;20459;-88
2022/08/14 12:20:32;;;;;;;4.80;4.50;;;37.60;24.20;;;;;;5077971;28;20919;-92
2022/08/14 12:23:00;;;;;;;4.77;4.33;;;37.80;24.00;;;;;;5074435;28;20448;-90
2022/08/14 12:25:28;;;;;;;3.93;3.63;;;37.90;24.00;;;;;;5072527;28;20490;-88
2022/08/14 12:27:57;;;;;;;4.63;4.23;;;37.90;24.00;;;;;;5068691;28;20447;-88
2022/08/14 12:30:32;;;;;;;5.27;4.80;;;37.40;24.50;;;;;;5095134;28;20474;-90
2022/08/14 12:33:02;;;;;;;4.50;4.20;;;37.50;24.40;;;;;;5099796;28;20535;-88
2022/08/14 12:35:37;;;;;;;4.73;4.33;;;37.40;24.10;;;;;;5081998;28;20484;-89
2022/08/14 12:38:04;;;;;;;4.17;3.90;;;37.30;23.80;;;;;;5052602;28;20819;-89
2022/08/14 12:40:31;;;;;;;4.50;4.20;;;37.10;24.50;;;;;;5065991;28;20542;-90
2022/08/14 12:43:01;;;;;;;4.40;4.10;;;37.20;24.50;;;;;;5075233;28;20492;-90
2022/08/14 12:45:34;;;;;;;4.33;4.03;;;37.40;23.70;;;;;;5074058;28;20504;-88
2022/08/14 12:48:05;;;;;;;4.83;4.43;;;37.40;23.30;;;;;;5065029;28;20955;-88
2022/08/14 12:50:37;;;;;;;4.33;3.93;;;37.30;23.70;;;;;;5095257;28;20467;-89
2022/08/14 12:53:04;;;;;;;4.20;3.90;;;37.30;23.60;;;;;;5093669;28;20507;-90
2022/08/14 12:55:34;;;;;;;4.27;3.87;;;37.60;23.70;;;;;;5077465;28;20427;-89
2022/08/14 12:58:04;;;;;;;4.10;3.80;;;37.80;23.10;;;;;;5066642;28;20497;-90
2022/08/14 13:00:32;;;;;;;4.57;4.17;;;37.60;23.60;;;;;;5064384;28;20502;-89
2022/08/14 13:02:59;;;;;;;4.67;4.37;;;37.40;23.80;;;;;;5077366;28;20546;-89
2022/08/14 13:05:30;;;;;;;5.53;4.73;;;36.80;23.90;;;;;;5075612;28;20866;-88
2022/08/14 13:07:58;;;;;;;4.60;4.30;;;36.80;24.40;;;;;;5057139;28;20447;-91
2022/08/14 13:10:27;;;;;;;4.07;3.77;;;37.10;24.40;;;;;;5089615;28;21002;-91